Flight Track Log - Related Links

Times and Time Zones

All times are in EDT time to prevent confusion due to time zone crossing. See the N6401H flight status page for this flight to view local times or setup timezone preferences in your user account.

Time Position Orientation Groundspeed Altitude Reporting Facility
EDT Latitude Longitude Course Direction KTS MPH feet Rate Location/Type
Sun 02:40:34 PM 28.7833 -81.2667 286° West 124 143 500  Level Orlando TRACON
Sun 02:42:17 PM 28.8000 -81.3333 286° West 130 150 1,900 589 Climbing Orlando TRACON
Sun 02:43:17 PM 28.8333 -81.3500 336° Northwest 132 152 2,100 400 Climbing Orlando TRACON
Sun 02:44:17 PM 28.8500 -81.4000 291° West 136 157 2,700 655 Climbing Orlando TRACON
Sun 02:46:02 PM 28.9050 -81.4031 357° North 135 155 3,900 687 Climbing Jacksonville Center
Sun 02:47:03 PM 28.9425 -81.3906 16° North 142 163 4,600 541 Climbing Jacksonville Center
Sun 02:48:04 PM 28.9842 -81.3828 North 150 173 5,000 248 Climbing Jacksonville Center
Sun 02:49:04 PM 29.0322 -81.3775 North 176 203 5,100  Climbing Jacksonville Center
Sun 02:50:11 PM 29.0883 -81.3767 North 175 201 5,000  Descending Jacksonville Center
Sun 02:51:06 PM 29.1322 -81.3758 North 169 194 5,100 295 Climbing Jacksonville Center
Sun 02:52:13 PM 29.1806 -81.3894 346° North 163 188 5,600 469 Climbing Jacksonville Center
Sun 02:53:14 PM 29.2225 -81.4056 341° North 165 190 6,100 492 Climbing Jacksonville Center
Sun 02:54:15 PM 29.2686 -81.4214 343° North 163 188 6,600 397 Climbing Jacksonville Center
Sun 02:55:15 PM 29.3125 -81.4303 350° North 161 185 6,900 114 Climbing Jacksonville Center
Sun 02:56:00 PM 29.3458 -81.4322 357° North 169 194 6,800  Descending Jacksonville Center
Sun 02:56:37 PM 29.3750 -81.4342 357° North 171 197 6,900 61 Climbing Jacksonville Center
Sun 02:57:38 PM 29.4233 -81.4431 351° North 162 186 6,900  Level Jacksonville Center
Sun 02:58:39 PM 29.4631 -81.4614 338° Northwest 158 182 6,900 49 Level Jacksonville Center
Sun 02:59:40 PM 29.5092 -81.4750 346° North 161 185 7,000 49 Climbing Jacksonville Center
Sun 03:00:41 PM 29.5531 -81.4864 347° North 161 185 7,000  Level Jacksonville Center
Sun 03:01:42 PM 29.5972 -81.5000 345° North 157 181 7,000  Level Jacksonville Center
Sun 03:02:43 PM 29.6392 -81.5161 342° North 157 181 7,000  Level Jacksonville Center
Sun 03:03:44 PM 29.6789 -81.5325 340° North 154 177 7,000  Level Jacksonville Center
Sun 03:04:51 PM 29.7250 -81.5581 334° Northwest 156 180 7,000  Level Jacksonville Center
Sun 03:05:52 PM 29.7669 -81.5717 344° North 155 178 7,000 -98 Level Jacksonville Center
Sun 03:06:53 PM 29.8131 -81.5831 348° North 161 185 6,800 -98 Descending Jacksonville Center
Sun 03:07:54 PM 29.8528 -81.5969 343° North 151 174 6,800 49 Level Jacksonville Center
Sun 03:08:55 PM 29.8906 -81.6156 337° Northwest 145 167 6,900  Climbing Jacksonville Center
Sun 03:09:56 PM 29.9283 -81.6344 337° Northwest 142 163 6,800 -197 Descending Jacksonville Center
Sun 03:10:57 PM 29.9661 -81.6531 337° Northwest 148 170 6,500 -639 Descending Jacksonville Center
Sun 03:11:58 PM 30.0081 -81.6764 334° Northwest 175 201 5,500 -934 Descending Jacksonville Center
Sun 03:12:59 PM 30.0481 -81.7000 333° Northwest 168 193 4,600 -843 Descending Jacksonville Center
Sun 03:13:59 PM 30.0878 -81.7236 333° Northwest 160 184 3,800 -645 Descending Jacksonville Center
Sun 03:15:00 PM 30.1300 -81.7517 330° Northwest 157 181 3,300 -492 Descending Jacksonville Center

Login

Don't have an account? Register now (free) for customized features, flight alerts, and more!